Time;durP1;ratioP1;P1;durP2;ratioP2;P2;SDS_P1;SDS_P2;PMS_P1;PMS_P2;Temp;Humidity;BMP_temperature;BMP_pressure;BME280_temperature;BME280_humidity;BME280_pressure;Samples;Min_cycle;Max_cycle;Signal;HPM_P1;HPM_P2
2022/10/18 00:00:19;;;;;;;24.80;12.55;;;;;;;;;;5021413;28;20187;-73
2022/10/18 00:02:44;;;;;;;82.90;18.17;;;;;;;;;;5017802;28;20181;-72
2022/10/18 00:05:09;;;;;;;16.73;12.38;;;;;;;;;;5020777;28;20198;-72
2022/10/18 00:07:34;;;;;;;46.70;14.48;;;;;;;;;;5024458;28;20217;-74
2022/10/18 00:10:00;;;;;;;29.48;12.63;;;;;;;;;;5022552;28;20208;-73
2022/10/18 00:12:25;;;;;;;109.50;19.27;;;;;;;;;;5029997;28;20178;-74
2022/10/18 00:14:50;;;;;;;14.85;10.40;;;;;;;;;;5033310;28;20295;-74
2022/10/18 00:17:15;;;;;;;37.75;15.25;;;;;;;;;;5016035;28;20266;-74
2022/10/18 00:19:41;;;;;;;26.08;13.32;;;;;;;;;;5023818;28;20173;-74
2022/10/18 00:22:06;;;;;;;24.25;13.13;;;;;;;;;;5024591;28;20185;-73
2022/10/18 00:24:31;;;;;;;25.38;12.02;;;;;;;;;;5027440;28;20194;-73
2022/10/18 00:26:56;;;;;;;27.10;10.43;;;;;;;;;;5023721;28;20186;-72
2022/10/18 00:29:21;;;;;;;19.63;11.40;;;;;;;;;;5022389;28;20199;-73
2022/10/18 00:31:46;;;;;;;12.80;9.50;;;;;;;;;;5021174;28;20183;-72
2022/10/18 00:34:13;;;;;;;11.30;9.10;;;;;;;;;;5020373;28;20198;-73
2022/10/18 00:36:38;;;;;;;13.43;8.35;;;;;;;;;;5024525;28;20178;-73
2022/10/18 00:39:04;;;;;;;39.97;11.13;;;;;;;;;;5027016;28;20174;-73
2022/10/18 00:41:31;;;;;;;11.18;8.23;;;;;;;;;;5021836;28;20593;-73
2022/10/18 00:43:59;;;;;;;16.15;8.50;;;;;;;;;;5019392;28;20194;-73
2022/10/18 00:46:25;;;;;;;24.23;9.80;;;;;;;;;;5026197;28;20185;-72
2022/10/18 00:48:51;;;;;;;27.23;12.40;;;;;;;;;;5016077;28;20233;-72
2022/10/18 00:51:18;;;;;;;23.85;11.38;;;;;;;;;;5019839;28;20203;-73
2022/10/18 00:53:43;;;;;;;11.05;9.85;;;;;;;;;;5017636;28;20261;-74
2022/10/18 00:56:09;;;;;;;53.10;11.77;;;;;;;;;;5017515;28;20935;-74
2022/10/18 00:58:34;;;;;;;20.02;10.40;;;;;;;;;;5015857;28;20623;-74
2022/10/18 01:00:59;;;;;;;8.93;7.82;;;;;;;;;;5036587;28;20208;-75
2022/10/18 01:03:25;;;;;;;25.95;10.25;;;;;;;;;;5025233;28;20182;-74
2022/10/18 01:05:50;;;;;;;20.13;9.15;;;;;;;;;;5019341;28;20197;-74
2022/10/18 01:08:23;;;;;;;13.70;8.98;;;;;;;;;;5014606;28;20276;-72
2022/10/18 01:11:00;;;;;;;10.15;7.82;;;;;;;;;;5020670;28;20182;-75
2022/10/18 01:13:37;;;;;;;11.30;8.48;;;;;;;;;;5022587;28;20182;-74
2022/10/18 01:16:17;;;;;;;163.35;20.73;;;;;;;;;;5023043;28;20496;-74
2022/10/18 01:19:02;;;;;;;19.88;9.25;;;;;;;;;;5017651;28;20178;-75
2022/10/18 01:21:37;;;;;;;8.05;6.72;;;;;;;;;;5024344;28;20190;-74
2022/10/18 01:24:27;;;;;;;12.88;7.93;;;;;;;;;;5037225;28;20205;-74
2022/10/18 01:27:15;;;;;;;35.28;10.00;;;;;;;;;;5015995;28;20668;-74
2022/10/18 01:29:50;;;;;;;14.13;8.27;;;;;;;;;;5021107;28;20272;-74
2022/10/18 01:32:18;;;;;;;19.20;8.85;;;;;;;;;;5018650;28;20236;-74
2022/10/18 01:34:45;;;;;;;8.50;7.55;;;;;;;;;;5021983;28;20564;-74
2022/10/18 01:37:12;;;;;;;17.38;9.00;;;;;;;;;;5016599;28;20175;-72
2022/10/18 01:39:40;;;;;;;8.68;7.80;;;;;;;;;;5020899;28;20186;-75
2022/10/18 01:42:07;;;;;;;9.98;7.38;;;;;;;;;;5019652;28;20667;-74
2022/10/18 01:44:33;;;;;;;7.15;6.45;;;;;;;;;;5026035;28;20289;-75
2022/10/18 01:46:59;;;;;;;8.73;7.82;;;;;;;;;;5018804;28;20262;-75
2022/10/18 01:49:25;;;;;;;8.93;7.10;;;;;;;;;;5017373;28;20298;-76
2022/10/18 01:51:51;;;;;;;10.38;8.20;;;;;;;;;;5025186;28;20175;-73
2022/10/18 01:54:18;;;;;;;8.63;7.63;;;;;;;;;;5027221;28;20198;-73
2022/10/18 01:56:43;;;;;;;7.95;6.45;;;;;;;;;;5025365;28;20183;-73
2022/10/18 01:59:27;;;;;;;10.07;7.00;;;;;;;;;;5019756;28;20638;-73
2022/10/18 02:02:11;;;;;;;11.02;7.40;;;;;;;;;;5020986;28;20206;-73
2022/10/18 02:04:36;;;;;;;24.98;9.93;;;;;;;;;;5026076;28;20222;-73
2022/10/18 02:07:08;;;;;;;8.23;7.43;;;;;;;;;;5021832;28;20691;-74
2022/10/18 02:09:40;;;;;;;9.30;8.38;;;;;;;;;;5026807;28;20481;-73
2022/10/18 02:12:07;;;;;;;8.45;7.07;;;;;;;;;;5022275;28;20182;-74
2022/10/18 02:14:33;;;;;;;9.35;7.30;;;;;;;;;;5024219;28;20199;-75
2022/10/18 02:17:00;;;;;;;8.15;7.28;;;;;;;;;;5023403;28;20186;-73
2022/10/18 02:19:31;;;;;;;7.65;6.88;;;;;;;;;;5014886;28;20278;-75
2022/10/18 02:21:57;;;;;;;12.38;7.32;;;;;;;;;;5025788;28;20685;-72
2022/10/18 02:24:24;;;;;;;17.92;9.07;;;;;;;;;;5016881;28;20207;-75
2022/10/18 02:26:49;;;;;;;12.23;7.97;;;;;;;;;;5022820;28;20702;-74
2022/10/18 02:29:14;;;;;;;16.15;7.47;;;;;;;;;;5017250;28;20214;-74
2022/10/18 02:31:44;;;;;;;7.82;7.07;;;;;;;;;;5018269;28;20173;-74
2022/10/18 02:34:15;;;;;;;11.77;7.57;;;;;;;;;;5020430;28;20183;-74
2022/10/18 02:36:46;;;;;;;7.90;7.15;;;;;;;;;;5020215;28;20170;-75
2022/10/18 02:39:15;;;;;;;7.15;6.45;;;;;;;;;;5024979;28;20174;-75
2022/10/18 02:41:40;;;;;;;8.32;7.38;;;;;;;;;;5023964;28;20206;-75
2022/10/18 02:44:05;;;;;;;10.98;7.75;;;;;;;;;;5025339;28;20207;-72
2022/10/18 02:46:30;;;;;;;8.57;7.60;;;;;;;;;;5020028;28;20254;-75
2022/10/18 02:48:56;;;;;;;7.53;6.75;;;;;;;;;;5021898;28;20758;-74
2022/10/18 02:51:21;;;;;;;7.25;6.32;;;;;;;;;;5013773;28;20182;-72
2022/10/18 02:53:46;;;;;;;30.48;7.82;;;;;;;;;;5025357;28;20178;-75
2022/10/18 02:56:11;;;;;;;21.88;7.88;;;;;;;;;;5025145;28;20264;-75
2022/10/18 02:58:36;;;;;;;9.10;6.78;;;;;;;;;;5025710;28;20248;-75
2022/10/18 03:01:02;;;;;;;7.25;6.55;;;;;;;;;;5043241;28;20183;-75
2022/10/18 03:03:27;;;;;;;7.93;7.13;;;;;;;;;;5020006;28;20197;-73
2022/10/18 03:05:52;;;;;;;7.45;6.60;;;;;;;;;;5037068;28;20570;-72
2022/10/18 03:08:18;;;;;;;15.68;8.63;;;;;;;;;;5017725;28;20719;-74
2022/10/18 03:10:43;;;;;;;21.58;9.00;;;;;;;;;;5024550;28;20636;-75
2022/10/18 03:13:09;;;;;;;89.63;13.57;;;;;;;;;;5025558;28;20651;-72
2022/10/18 03:15:34;;;;;;;36.80;10.27;;;;;;;;;;5017886;28;20230;-75
2022/10/18 03:17:59;;;;;;;24.27;8.43;;;;;;;;;;5029269;28;20234;-74
2022/10/18 03:20:24;;;;;;;9.40;7.85;;;;;;;;;;5022064;28;20179;-72
2022/10/18 03:22:49;;;;;;;9.95;7.13;;;;;;;;;;5018325;28;20680;-75
2022/10/18 03:25:15;;;;;;;6.65;5.95;;;;;;;;;;5039377;28;20711;-74
2022/10/18 03:27:40;;;;;;;12.30;7.78;;;;;;;;;;5020398;28;20699;-74
2022/10/18 03:30:05;;;;;;;8.73;7.20;;;;;;;;;;5020225;28;20175;-74
2022/10/18 03:32:31;;;;;;;8.43;6.18;;;;;;;;;;5017531;28;20243;-74
2022/10/18 03:34:56;;;;;;;9.32;7.80;;;;;;;;;;5022026;28;20277;-75
2022/10/18 03:37:21;;;;;;;35.95;9.73;;;;;;;;;;5016747;28;20182;-75
2022/10/18 03:39:46;;;;;;;8.38;7.25;;;;;;;;;;5020553;28;20193;-75
2022/10/18 03:42:11;;;;;;;10.65;6.15;;;;;;;;;;5017809;28;20250;-75
2022/10/18 03:44:37;;;;;;;11.98;6.75;;;;;;;;;;5023433;28;20549;-74
2022/10/18 03:47:02;;;;;;;10.40;7.97;;;;;;;;;;5021500;28;20217;-74
2022/10/18 03:49:27;;;;;;;9.45;6.57;;;;;;;;;;5016841;28;20603;-74
2022/10/18 03:51:52;;;;;;;165.82;20.85;;;;;;;;;;5015539;28;20203;-74
2022/10/18 03:54:17;;;;;;;61.88;11.68;;;;;;;;;;5015756;28;20191;-74
2022/10/18 03:56:42;;;;;;;7.72;6.30;;;;;;;;;;5025521;28;20206;-74
2022/10/18 03:59:08;;;;;;;7.90;6.35;;;;;;;;;;5017040;28;21851;-72
2022/10/18 04:01:33;;;;;;;11.43;6.85;;;;;;;;;;5018832;28;20178;-75
2022/10/18 04:03:58;;;;;;;7.45;6.10;;;;;;;;;;5016491;28;20185;-72
2022/10/18 04:06:23;;;;;;;11.82;6.63;;;;;;;;;;5025637;28;20580;-75
2022/10/18 04:08:48;;;;;;;6.95;6.25;;;;;;;;;;5020922;28;20234;-75
2022/10/18 04:11:13;;;;;;;6.22;5.63;;;;;;;;;;5019985;28;20175;-75
2022/10/18 04:13:39;;;;;;;6.28;5.68;;;;;;;;;;5021109;28;20186;-74
2022/10/18 04:16:04;;;;;;;7.25;5.93;;;;;;;;;;5015933;28;20313;-74
2022/10/18 04:18:29;;;;;;;8.68;6.47;;;;;;;;;;5038338;28;20273;-75
2022/10/18 04:20:55;;;;;;;6.47;5.88;;;;;;;;;;5020724;28;20206;-73
2022/10/18 04:23:20;;;;;;;13.77;7.40;;;;;;;;;;5019108;28;20198;-72
2022/10/18 04:25:45;;;;;;;9.85;7.45;;;;;;;;;;5036161;28;20256;-72
2022/10/18 04:28:10;;;;;;;14.30;8.10;;;;;;;;;;5025268;28;20313;-72
2022/10/18 04:30:36;;;;;;;7.53;6.20;;;;;;;;;;5015899;28;20179;-75
2022/10/18 04:33:01;;;;;;;6.93;6.07;;;;;;;;;;5019209;28;20195;-75
2022/10/18 04:35:27;;;;;;;8.30;6.80;;;;;;;;;;5021357;28;20215;-73
2022/10/18 04:37:52;;;;;;;9.90;6.47;;;;;;;;;;5019491;28;20261;-76
2022/10/18 04:40:18;;;;;;;7.25;5.97;;;;;;;;;;5019166;28;20294;-75
2022/10/18 04:42:43;;;;;;;12.65;6.97;;;;;;;;;;5036104;28;20212;-75
2022/10/18 04:45:09;;;;;;;6.45;5.85;;;;;;;;;;5019655;28;20234;-75
2022/10/18 04:47:34;;;;;;;6.60;5.90;;;;;;;;;;5020491;28;20573;-75
2022/10/18 04:49:59;;;;;;;5.85;5.03;;;;;;;;;;5018825;28;20569;-75
2022/10/18 04:52:24;;;;;;;10.65;6.88;;;;;;;;;;5013983;28;20175;-74
2022/10/18 04:54:50;;;;;;;10.55;7.00;;;;;;;;;;5017023;28;20206;-74
2022/10/18 04:57:15;;;;;;;16.60;8.07;;;;;;;;;;5023868;28;20301;-74
2022/10/18 04:59:40;;;;;;;10.20;6.30;;;;;;;;;;5024064;28;20560;-75
2022/10/18 05:02:05;;;;;;;6.55;5.55;;;;;;;;;;5018407;28;20182;-75
2022/10/18 05:04:31;;;;;;;8.00;6.30;;;;;;;;;;5020523;28;20198;-75
2022/10/18 05:06:56;;;;;;;12.57;7.90;;;;;;;;;;5021980;28;20576;-75
2022/10/18 05:09:23;;;;;;;10.45;7.18;;;;;;;;;;5018740;28;20244;-73
2022/10/18 05:11:48;;;;;;;29.40;8.35;;;;;;;;;;5026854;28;20178;-75
2022/10/18 05:14:14;;;;;;;11.93;6.90;;;;;;;;;;5026562;28;20213;-73
2022/10/18 05:16:39;;;;;;;13.77;7.88;;;;;;;;;;5020816;28;20178;-75
2022/10/18 05:19:04;;;;;;;7.88;6.32;;;;;;;;;;5026705;28;20570;-75
2022/10/18 05:21:29;;;;;;;10.73;6.93;;;;;;;;;;5018358;28;20191;-74
2022/10/18 05:23:55;;;;;;;8.03;6.43;;;;;;;;;;5017427;28;20226;-74
2022/10/18 05:26:20;;;;;;;7.00;6.23;;;;;;;;;;5020234;28;20187;-72
2022/10/18 05:28:45;;;;;;;6.40;5.80;;;;;;;;;;5025902;28;20653;-75
2022/10/18 05:31:10;;;;;;;7.43;6.57;;;;;;;;;;5024752;28;20663;-75
2022/10/18 05:33:36;;;;;;;7.57;6.00;;;;;;;;;;5026508;28;20178;-75
2022/10/18 05:36:01;;;;;;;9.18;5.53;;;;;;;;;;5026387;28;20198;-75
2022/10/18 05:38:29;;;;;;;7.80;6.68;;;;;;;;;;5041516;28;20309;-74
2022/10/18 05:40:54;;;;;;;7.18;5.47;;;;;;;;;;5015201;28;20186;-74
2022/10/18 05:43:20;;;;;;;6.40;5.35;;;;;;;;;;5021865;28;20178;-73
2022/10/18 05:45:46;;;;;;;6.20;5.63;;;;;;;;;;5024447;28;20194;-74
2022/10/18 05:48:11;;;;;;;6.35;5.63;;;;;;;;;;5028252;28;20224;-74
2022/10/18 05:50:37;;;;;;;6.50;4.78;;;;;;;;;;5037593;28;20186;-73
2022/10/18 05:53:02;;;;;;;7.13;5.70;;;;;;;;;;5026494;28;20171;-73
2022/10/18 05:55:27;;;;;;;5.70;5.10;;;;;;;;;;5022324;28;20205;-73
2022/10/18 05:57:52;;;;;;;7.47;5.80;;;;;;;;;;5023005;28;20190;-73
2022/10/18 06:00:17;;;;;;;6.93;6.13;;;;;;;;;;5011761;28;20183;-74
2022/10/18 06:02:43;;;;;;;6.35;5.15;;;;;;;;;;5023253;28;20638;-74
2022/10/18 06:05:08;;;;;;;7.75;5.90;;;;;;;;;;5013512;28;20718;-73
2022/10/18 06:07:33;;;;;;;10.20;5.95;;;;;;;;;;5019818;28;20198;-73
2022/10/18 06:09:58;;;;;;;10.02;7.05;;;;;;;;;;5015045;28;20175;-74
2022/10/18 06:12:24;;;;;;;14.43;5.82;;;;;;;;;;5018272;28;20202;-74
2022/10/18 06:14:49;;;;;;;5.63;4.47;;;;;;;;;;5021734;28;20194;-75
2022/10/18 06:17:14;;;;;;;6.93;4.95;;;;;;;;;;5015170;28;20187;-74
2022/10/18 06:19:39;;;;;;;5.70;5.10;;;;;;;;;;5017766;28;20179;-73
2022/10/18 06:22:04;;;;;;;5.63;4.97;;;;;;;;;;5010316;28;20179;-73
2022/10/18 06:24:30;;;;;;;4.80;4.35;;;;;;;;;;5027423;28;20281;-73
2022/10/18 06:26:55;;;;;;;4.85;4.45;;;;;;;;;;5030680;28;20581;-75
2022/10/18 06:29:21;;;;;;;7.10;4.97;;;;;;;;;;5021379;28;20676;-75
2022/10/18 06:31:46;;;;;;;8.55;4.90;;;;;;;;;;5016898;28;20205;-75
2022/10/18 06:34:11;;;;;;;6.82;5.07;;;;;;;;;;5021047;28;20249;-75
2022/10/18 06:36:36;;;;;;;11.25;5.10;;;;;;;;;;5019332;28;20229;-75
2022/10/18 06:39:01;;;;;;;10.80;5.22;;;;;;;;;;5029042;28;20184;-75
2022/10/18 06:41:27;;;;;;;8.57;4.82;;;;;;;;;;5017031;28;20209;-75
2022/10/18 06:43:55;;;;;;;11.55;5.22;;;;;;;;;;5027837;28;20243;-73
2022/10/18 06:46:20;;;;;;;8.35;5.20;;;;;;;;;;5020809;28;20559;-75
2022/10/18 06:48:45;;;;;;;8.45;5.05;;;;;;;;;;5046487;28;20194;-73
2022/10/18 06:51:11;;;;;;;8.57;4.78;;;;;;;;;;5025272;28;20305;-73
2022/10/18 06:53:37;;;;;;;6.35;4.75;;;;;;;;;;5029840;28;20174;-75
2022/10/18 06:56:05;;;;;;;5.45;4.95;;;;;;;;;;5024695;28;20722;-73
2022/10/18 06:58:31;;;;;;;6.47;5.38;;;;;;;;;;5026980;28;20262;-76
2022/10/18 07:00:57;;;;;;;7.13;5.35;;;;;;;;;;5023589;28;20269;-73
2022/10/18 07:03:23;;;;;;;7.10;4.60;;;;;;;;;;5045439;28;20181;-73
2022/10/18 07:05:48;;;;;;;5.20;4.70;;;;;;;;;;5031907;28;20424;-75
2022/10/18 07:08:13;;;;;;;5.97;4.78;;;;;;;;;;5028624;28;20675;-73
2022/10/18 07:10:39;;;;;;;4.57;4.05;;;;;;;;;;5021726;28;20652;-73
2022/10/18 07:13:04;;;;;;;6.72;4.55;;;;;;;;;;5024405;28;20183;-73
2022/10/18 07:15:29;;;;;;;5.60;4.45;;;;;;;;;;5029482;28;20194;-73
2022/10/18 07:17:54;;;;;;;4.93;4.30;;;;;;;;;;5033182;28;20194;-73
2022/10/18 07:20:20;;;;;;;5.95;4.32;;;;;;;;;;5024735;28;20198;-73
2022/10/18 07:22:45;;;;;;;5.60;4.70;;;;;;;;;;5030167;28;20236;-73
2022/10/18 07:25:10;;;;;;;4.60;4.10;;;;;;;;;;5028922;28;20204;-73
2022/10/18 07:27:40;;;;;;;4.68;4.07;;;;;;;;;;5017798;28;20183;-73
2022/10/18 07:30:06;;;;;;;6.13;4.63;;;;;;;;;;5016999;28;20735;-73
2022/10/18 07:32:31;;;;;;;5.15;4.65;;;;;;;;;;5024009;28;20258;-73
2022/10/18 07:34:56;;;;;;;9.40;4.97;;;;;;;;;;5016911;28;20286;-73
2022/10/18 07:37:21;;;;;;;5.15;4.38;;;;;;;;;;5016345;28;20250;-73
2022/10/18 07:39:47;;;;;;;5.05;4.22;;;;;;;;;;5015051;28;20275;-73
2022/10/18 07:42:12;;;;;;;3.83;3.42;;;;;;;;;;5023382;28;20877;-73
2022/10/18 07:44:38;;;;;;;5.47;4.25;;;;;;;;;;5017707;28;20217;-73
2022/10/18 07:47:03;;;;;;;6.60;4.00;;;;;;;;;;5020891;28;20186;-75
2022/10/18 07:49:28;;;;;;;6.05;4.97;;;;;;;;;;5015773;28;20206;-73
2022/10/18 07:51:53;;;;;;;6.40;4.78;;;;;;;;;;5019728;28;20644;-73
2022/10/18 07:54:18;;;;;;;6.30;4.70;;;;;;;;;;5010753;28;20339;-73
2022/10/18 07:56:43;;;;;;;4.93;4.35;;;;;;;;;;5017050;28;20175;-73
2022/10/18 07:59:10;;;;;;;5.55;4.07;;;;;;;;;;5018413;28;20681;-73
2022/10/18 08:01:35;;;;;;;6.35;4.35;;;;;;;;;;5034433;28;20186;-73
2022/10/18 08:04:00;;;;;;;5.35;4.75;;;;;;;;;;5017447;28;20179;-73
2022/10/18 08:06:25;;;;;;;4.93;4.32;;;;;;;;;;5017013;28;20217;-73
2022/10/18 08:08:51;;;;;;;5.03;4.50;;;;;;;;;;5017703;28;20570;-73
2022/10/18 08:11:17;;;;;;;7.55;5.03;;;;;;;;;;5017996;28;20213;-73
2022/10/18 08:13:43;;;;;;;5.75;4.13;;;;;;;;;;5018678;28;20174;-73
2022/10/18 08:16:10;;;;;;;4.25;3.70;;;;;;;;;;5020634;28;20210;-74
2022/10/18 08:18:35;;;;;;;5.35;3.95;;;;;;;;;;5021474;28;20187;-74
2022/10/18 08:21:02;;;;;;;4.53;3.40;;;;;;;;;;5015438;28;20188;-72
2022/10/18 08:23:28;;;;;;;4.80;2.70;;;;;;;;;;5023796;28;20359;-74
2022/10/18 08:25:53;;;;;;;3.17;2.88;;;;;;;;;;5021714;28;20212;-74
2022/10/18 08:28:18;;;;;;;3.60;3.30;;;;;;;;;;5018870;28;20218;-72
2022/10/18 08:30:44;;;;;;;6.07;2.85;;;;;;;;;;5018669;28;20947;-73
2022/10/18 08:33:09;;;;;;;3.40;3.10;;;;;;;;;;5021020;28;20228;-74
2022/10/18 08:35:34;;;;;;;4.50;2.63;;;;;;;;;;5025836;28;20190;-72
2022/10/18 08:38:00;;;;;;;4.03;2.85;;;;;;;;;;5021238;28;20180;-72
2022/10/18 08:40:26;;;;;;;4.40;3.13;;;;;;;;;;5022018;28;20206;-74
2022/10/18 08:42:57;;;;;;;3.35;2.70;;;;;;;;;;5023950;28;20174;-72
2022/10/18 08:45:24;;;;;;;4.35;2.72;;;;;;;;;;5021590;28;20263;-73
2022/10/18 08:47:50;;;;;;;6.03;3.75;;;;;;;;;;5016363;28;20206;-71
2022/10/18 08:50:17;;;;;;;3.28;2.38;;;;;;;;;;5014677;28;20179;-72
2022/10/18 08:52:43;;;;;;;6.45;2.97;;;;;;;;;;5016923;28;20261;-72
2022/10/18 08:55:09;;;;;;;4.95;2.08;;;;;;;;;;5022091;28;20232;-72
2022/10/18 08:57:34;;;;;;;2.08;1.88;;;;;;;;;;5023553;28;20621;-72
2022/10/18 09:00:00;;;;;;;4.40;2.63;;;;;;;;;;5015449;28;20700;-72
2022/10/18 09:02:43;;;;;;;3.92;2.60;;;;;;;;;;5020297;28;20183;-72
2022/10/18 09:05:09;;;;;;;3.25;2.20;;;;;;;;;;5016138;28;20210;-72
2022/10/18 09:07:40;;;;;;;5.28;2.63;;;;;;;;;;5018096;28;20204;-72
2022/10/18 09:10:18;;;;;;;3.55;1.83;;;;;;;;;;5013122;28;20202;-72
2022/10/18 09:13:02;;;;;;;5.05;1.75;;;;;;;;;;5012991;28;20661;-71
2022/10/18 09:15:39;;;;;;;7.97;2.75;;;;;;;;;;5014174;28;20194;-72
2022/10/18 09:18:07;;;;;;;5.85;2.35;;;;;;;;;;5017887;28;20186;-72
2022/10/18 09:20:35;;;;;;;4.28;2.10;;;;;;;;;;5032460;28;20632;-72
2022/10/18 09:23:15;;;;;;;3.13;1.30;;;;;;;;;;5016668;28;20265;-73
2022/10/18 09:25:44;;;;;;;4.40;1.98;;;;;;;;;;5018581;28;20201;-73
2022/10/18 09:28:15;;;;;;;5.82;2.80;;;;;;;;;;5020195;28;20289;-73
2022/10/18 09:30:59;;;;;;;5.97;2.00;;;;;;;;;;5033893;28;20174;-73
2022/10/18 09:33:27;;;;;;;4.05;2.00;;;;;;;;;;5020397;28;20190;-73
2022/10/18 09:35:54;;;;;;;6.75;2.13;;;;;;;;;;5021413;28;20897;-73
2022/10/18 09:38:22;;;;;;;8.93;1.92;;;;;;;;;;5017114;28;20178;-73
2022/10/18 09:40:58;;;;;;;5.07;1.13;;;;;;;;;;5023623;28;20177;-73
2022/10/18 09:43:43;;;;;;;5.10;1.75;;;;;;;;;;5019747;28;20174;-73
2022/10/18 09:46:09;;;;;;;6.90;2.25;;;;;;;;;;5018983;28;20218;-73
2022/10/18 09:48:57;;;;;;;4.78;1.20;;;;;;;;;;5011963;28;20221;-73
2022/10/18 09:51:25;;;;;;;5.30;1.10;;;;;;;;;;5015534;28;20198;-73
2022/10/18 09:53:56;;;;;;;3.83;1.52;;;;;;;;;;5017909;28;20181;-73
2022/10/18 09:56:25;;;;;;;4.75;1.50;;;;;;;;;;5016601;28;20171;-72
2022/10/18 09:58:50;;;;;;;6.18;1.10;;;;;;;;;;5013434;28;20273;-73
2022/10/18 10:01:20;;;;;;;3.15;1.20;;;;;;;;;;5019346;28;20779;-74
2022/10/18 10:03:45;;;;;;;3.70;1.17;;;;;;;;;;5018528;28;20316;-73
2022/10/18 10:06:11;;;;;;;2.35;0.90;;;;;;;;;;5024669;28;20214;-73
2022/10/18 10:08:39;;;;;;;5.23;1.10;;;;;;;;;;5019818;28;22019;-74
2022/10/18 10:11:24;;;;;;;2.38;0.80;;;;;;;;;;5025458;28;20858;-73
2022/10/18 10:13:49;;;;;;;2.72;0.90;;;;;;;;;;5024003;28;20232;-73
2022/10/18 10:16:14;;;;;;;2.45;0.98;;;;;;;;;;5021309;28;20198;-74
2022/10/18 10:18:40;;;;;;;5.30;0.70;;;;;;;;;;5024648;28;20174;-73
2022/10/18 10:21:06;;;;;;;4.72;1.40;;;;;;;;;;5027136;28;20836;-73
2022/10/18 10:23:43;;;;;;;3.22;0.95;;;;;;;;;;5023381;28;20190;-73
2022/10/18 10:26:22;;;;;;;3.88;1.17;;;;;;;;;;5016448;28;20289;-73
2022/10/18 10:28:47;;;;;;;4.03;1.17;;;;;;;;;;5029700;28;20204;-74
2022/10/18 10:31:29;;;;;;;3.08;0.80;;;;;;;;;;5023709;28;20182;-73
2022/10/18 10:34:12;;;;;;;4.38;0.88;;;;;;;;;;5020049;28;20171;-74
2022/10/18 10:36:46;;;;;;;4.15;1.15;;;;;;;;;;5025346;28;20189;-73
2022/10/18 10:39:17;;;;;;;4.60;1.13;;;;;;;;;;5020327;28;20189;-73
2022/10/18 10:41:45;;;;;;;4.05;1.08;;;;;;;;;;5023883;28;20536;-73
2022/10/18 10:44:15;;;;;;;6.05;1.33;;;;;;;;;;5021839;28;20210;-73
2022/10/18 10:46:40;;;;;;;2.10;1.02;;;;;;;;;;5020000;28;20178;-73
2022/10/18 10:49:05;;;;;;;4.95;1.38;;;;;;;;;;5017139;28;20851;-73
2022/10/18 10:51:37;;;;;;;4.55;1.10;;;;;;;;;;5018873;28;20553;-73
2022/10/18 10:54:14;;;;;;;4.22;1.02;;;;;;;;;;5011776;28;20780;-73
2022/10/18 10:57:03;;;;;;;4.57;1.00;;;;;;;;;;5036484;28;20183;-73
2022/10/18 10:59:51;;;;;;;5.13;1.20;;;;;;;;;;5012557;28;20199;-73
2022/10/18 11:02:21;;;;;;;10.93;2.85;;;;;;;;;;5021316;28;20190;-73
2022/10/18 11:04:47;;;;;;;3.65;1.10;;;;;;;;;;5033464;28;20361;-73
2022/10/18 11:07:31;;;;;;;7.22;1.88;;;;;;;;;;5023535;28;20199;-73
2022/10/18 11:10:02;;;;;;;5.10;1.17;;;;;;;;;;5016087;28;20547;-73
2022/10/18 11:12:32;;;;;;;3.28;0.95;;;;;;;;;;5014206;28;20567;-73
2022/10/18 11:15:10;;;;;;;2.72;0.82;;;;;;;;;;5022200;28;20202;-72
2022/10/18 11:17:54;;;;;;;2.80;0.80;;;;;;;;;;5022892;28;20210;-73
2022/10/18 11:20:35;;;;;;;4.10;0.90;;;;;;;;;;5017427;28;20183;-73
2022/10/18 11:23:06;;;;;;;3.40;1.23;;;;;;;;;;5023029;28;20184;-73
2022/10/18 11:25:46;;;;;;;4.10;1.23;;;;;;;;;;5024341;28;20202;-72
2022/10/18 11:28:20;;;;;;;3.83;1.00;;;;;;;;;;5017759;28;20770;-73
2022/10/18 11:30:58;;;;;;;2.80;0.80;;;;;;;;;;5019666;28;20193;-73
2022/10/18 11:33:30;;;;;;;7.68;1.83;;;;;;;;;;5014893;28;20206;-72
2022/10/18 11:36:21;;;;;;;1.77;0.85;;;;;;;;;;5016692;28;20210;-73
2022/10/18 11:38:50;;;;;;;4.00;0.90;;;;;;;;;;5021689;28;20285;-73
2022/10/18 11:41:25;;;;;;;6.05;1.05;;;;;;;;;;5033603;28;20183;-73
2022/10/18 11:43:52;;;;;;;3.55;1.10;;;;;;;;;;5020800;28;20192;-72
2022/10/18 11:46:20;;;;;;;4.82;1.15;;;;;;;;;;5016975;28;20285;-73
2022/10/18 11:49:01;;;;;;;5.57;1.40;;;;;;;;;;5021419;28;20225;-73
2022/10/18 11:51:26;;;;;;;4.65;1.45;;;;;;;;;;5019221;28;20175;-73
2022/10/18 11:54:16;;;;;;;4.13;0.73;;;;;;;;;;5019485;28;20172;-73
2022/10/18 11:57:08;;;;;;;4.10;1.15;;;;;;;;;;5023443;28;20551;-73
2022/10/18 11:59:38;;;;;;;2.72;0.80;;;;;;;;;;5017206;28;20182;-73
2022/10/18 12:02:22;;;;;;;2.55;0.47;;;;;;;;;;5020586;28;20178;-73
2022/10/18 12:04:50;;;;;;;2.97;0.57;;;;;;;;;;5020799;28;20198;-73
2022/10/18 12:07:18;;;;;;;3.17;0.80;;;;;;;;;;5023155;28;20201;-73
2022/10/18 12:09:44;;;;;;;2.08;0.70;;;;;;;;;;5015710;28;20217;-73
2022/10/18 12:12:26;;;;;;;1.13;0.40;;;;;;;;;;5023185;28;20273;-73
2022/10/18 12:15:12;;;;;;;5.15;0.70;;;;;;;;;;5015637;28;20234;-73
2022/10/18 12:17:40;;;;;;;2.03;0.85;;;;;;;;;;5020131;28;20194;-73
2022/10/18 12:20:21;;;;;;;3.08;1.08;;;;;;;;;;5014726;28;20273;-72
2022/10/18 12:22:49;;;;;;;4.05;0.77;;;;;;;;;;5013675;28;20209;-73
2022/10/18 12:25:15;;;;;;;2.08;0.85;;;;;;;;;;5013584;28;20206;-73
2022/10/18 12:27:55;;;;;;;3.70;1.20;;;;;;;;;;5020590;28;20181;-73
2022/10/18 12:30:41;;;;;;;4.80;1.17;;;;;;;;;;5016861;28;20174;-73
2022/10/18 12:33:12;;;;;;;3.72;0.80;;;;;;;;;;5011650;28;20686;-73
2022/10/18 12:35:48;;;;;;;4.53;0.95;;;;;;;;;;5020268;28;21805;-73
2022/10/18 12:38:27;;;;;;;2.50;0.70;;;;;;;;;;5028540;28;20182;-73
2022/10/18 12:40:53;;;;;;;2.72;0.70;;;;;;;;;;5040165;28;20185;-73
2022/10/18 12:43:35;;;;;;;3.90;1.15;;;;;;;;;;5022867;28;20187;-73
2022/10/18 12:46:01;;;;;;;3.38;0.65;;;;;;;;;;5019176;28;20761;-73
2022/10/18 12:48:26;;;;;;;3.25;1.00;;;;;;;;;;5019436;28;20205;-73
2022/10/18 12:50:57;;;;;;;3.20;0.97;;;;;;;;;;5012810;28;20175;-73
2022/10/18 12:53:26;;;;;;;3.78;0.95;;;;;;;;;;5019511;28;20440;-73
2022/10/18 12:55:52;;;;;;;7.00;1.40;;;;;;;;;;5013880;28;20297;-73
2022/10/18 12:58:20;;;;;;;2.97;0.52;;;;;;;;;;5016152;28;20274;-73
2022/10/18 13:00:46;;;;;;;3.78;0.95;;;;;;;;;;5013507;28;20186;-73
2022/10/18 13:03:18;;;;;;;2.35;1.10;;;;;;;;;;5028030;28;20257;-73
2022/10/18 13:05:46;;;;;;;2.15;0.65;;;;;;;;;;5015815;28;20260;-73
2022/10/18 13:08:26;;;;;;;3.35;0.55;;;;;;;;;;5017236;28;20203;-73
2022/10/18 13:11:07;;;;;;;3.30;0.80;;;;;;;;;;5032914;28;20560;-73
2022/10/18 13:13:49;;;;;;;2.80;0.63;;;;;;;;;;5017513;28;20233;-73
2022/10/18 13:16:14;;;;;;;3.40;0.90;;;;;;;;;;5009824;28;20422;-73
2022/10/18 13:18:39;;;;;;;3.83;1.02;;;;;;;;;;5017571;28;20232;-72
2022/10/18 13:21:24;;;;;;;5.03;0.60;;;;;;;;;;5015935;28;20561;-73
2022/10/18 13:24:01;;;;;;;3.63;0.80;;;;;;;;;;5011413;28;20868;-74
2022/10/18 13:26:34;;;;;;;2.65;0.70;;;;;;;;;;5020317;28;20235;-73
2022/10/18 13:29:05;;;;;;;2.67;1.10;;;;;;;;;;5011707;28;20194;-73
2022/10/18 13:31:33;;;;;;;7.10;2.05;;;;;;;;;;5013569;28;20175;-73
2022/10/18 13:34:17;;;;;;;4.05;0.95;;;;;;;;;;5015782;28;20179;-73
2022/10/18 13:36:42;;;;;;;3.45;0.60;;;;;;;;;;5013465;28;20182;-72
2022/10/18 13:39:17;;;;;;;4.50;0.68;;;;;;;;;;5023038;28;20182;-73
2022/10/18 13:41:42;;;;;;;4.45;0.80;;;;;;;;;;5022140;28;20561;-73
2022/10/18 13:44:10;;;;;;;4.38;0.70;;;;;;;;;;5017264;28;20186;-73
2022/10/18 13:46:35;;;;;;;4.45;0.75;;;;;;;;;;5030010;28;20189;-72
2022/10/18 13:49:16;;;;;;;4.45;0.93;;;;;;;;;;5020465;28;20202;-73
2022/10/18 13:51:46;;;;;;;4.45;1.30;;;;;;;;;;5025669;28;20190;-73
2022/10/18 13:54:30;;;;;;;5.00;0.80;;;;;;;;;;5020392;28;20202;-73
2022/10/18 13:57:10;;;;;;;3.75;0.90;;;;;;;;;;5021036;28;20253;-72
2022/10/18 13:59:58;;;;;;;3.60;0.82;;;;;;;;;;5024461;28;20187;-72
2022/10/18 14:02:42;;;;;;;2.13;0.60;;;;;;;;;;5025819;28;20186;-72
2022/10/18 14:05:10;;;;;;;3.58;0.50;;;;;;;;;;5014964;28;20281;-72
2022/10/18 14:07:36;;;;;;;2.17;0.70;;;;;;;;;;5020426;28;20194;-72
2022/10/18 14:10:01;;;;;;;1.88;0.52;;;;;;;;;;5025055;28;20202;-72
2022/10/18 14:12:29;;;;;;;2.53;0.88;;;;;;;;;;5027039;28;20694;-72
2022/10/18 14:15:06;;;;;;;1.30;0.35;;;;;;;;;;5033582;28;20281;-72
2022/10/18 14:17:49;;;;;;;5.85;1.13;;;;;;;;;;5014582;28;20198;-73
2022/10/18 14:20:14;;;;;;;4.82;0.60;;;;;;;;;;5015864;28;20175;-72
2022/10/18 14:22:42;;;;;;;1.75;0.63;;;;;;;;;;5032825;28;20183;-72
2022/10/18 14:25:26;;;;;;;3.42;0.80;;;;;;;;;;5021831;28;20199;-72
2022/10/18 14:28:12;;;;;;;2.63;0.60;;;;;;;;;;5021106;28;20167;-72
2022/10/18 14:30:50;;;;;;;1.92;0.80;;;;;;;;;;5019741;28;20288;-72
2022/10/18 14:33:35;;;;;;;4.28;0.90;;;;;;;;;;5019010;28;20181;-73
2022/10/18 14:36:09;;;;;;;3.50;0.75;;;;;;;;;;5024757;28;20582;-72
2022/10/18 14:38:36;;;;;;;5.45;0.77;;;;;;;;;;5027943;28;20178;-72
2022/10/18 14:41:24;;;;;;;2.42;0.80;;;;;;;;;;5017163;28;20196;-72
2022/10/18 14:43:50;;;;;;;2.70;0.68;;;;;;;;;;5011449;28;20227;-72
2022/10/18 14:46:26;;;;;;;3.63;0.70;;;;;;;;;;5019971;28;20311;-72
2022/10/18 14:48:58;;;;;;;5.05;0.90;;;;;;;;;;5018670;28;20256;-72